Time;durP1;ratioP1;P1;durP2;ratioP2;P2;SDS_P1;SDS_P2;PMS_P1;PMS_P2;Temp;Humidity;BMP_temperature;BMP_pressure;BME280_temperature;BME280_humidity;BME280_pressure;Samples;Min_cycle;Max_cycle;Signal;HPM_P1;HPM_P2
2022/05/19 00:01:04;;;;;;;2.35;2.15;;;;;;;16.16;60.74;101722.41;5052567;27;102404;-49
2022/05/19 00:03:35;;;;;;;1.83;1.73;;;;;;;16.16;61.43;101715.00;5033381;27;102222;-49
2022/05/19 00:06:02;;;;;;;2.55;2.03;;;;;;;16.16;61.05;101725.16;5051761;27;103993;-49
2022/05/19 00:08:29;;;;;;;1.98;1.88;;;;;;;16.16;61.33;101727.91;5051964;27;102569;-49
2022/05/19 00:11:05;;;;;;;2.03;1.83;;;;;;;16.15;61.08;101720.75;5052509;27;102241;-49
2022/05/19 00:13:32;;;;;;;2.40;2.20;;;;;;;16.14;61.32;101717.19;5053403;27;102340;-49
2022/05/19 00:16:00;;;;;;;1.92;1.73;;;;;;;16.15;60.65;101718.00;5049946;27;103914;-49
2022/05/19 00:18:26;;;;;;;2.40;2.17;;;;;;;16.13;60.94;101712.81;5052836;27;101765;-49
2022/05/19 00:20:55;;;;;;;2.28;2.08;;;;;;;16.14;60.85;101717.19;5047058;27;102234;-49
2022/05/19 00:23:21;;;;;;;2.15;1.95;;;;;;;16.14;61.10;101708.97;5053508;27;101882;-50
2022/05/19 00:25:49;;;;;;;2.10;2.00;;;;;;;16.14;61.08;101714.44;5051641;27;104047;-49
2022/05/19 00:28:16;;;;;;;2.15;1.75;;;;;;;16.13;60.85;101712.00;5052837;27;102474;-50
2022/05/19 00:30:44;;;;;;;2.40;1.95;;;;;;;16.13;60.86;101710.06;5050343;27;102813;-49
2022/05/19 00:33:12;;;;;;;4.45;2.13;;;;;;;16.13;60.94;101714.75;5052958;27;102098;-49
2022/05/19 00:35:40;;;;;;;2.95;2.03;;;;;;;16.13;60.71;101701.00;5051371;27;104143;-50
2022/05/19 00:38:09;;;;;;;2.00;1.90;;;;;;;16.12;61.09;101702.94;5050345;27;102429;-49
2022/05/19 00:40:37;;;;;;;5.43;1.85;;;;;;;16.09;60.99;101704.31;5051460;27;101937;-50
2022/05/19 00:43:04;;;;;;;2.20;2.00;;;;;;;16.11;61.04;101706.78;5051606;27;102288;-50
2022/05/19 00:45:40;;;;;;;2.92;1.83;;;;;;;16.09;60.83;101709.81;5050357;27;103915;-49
2022/05/19 00:48:12;;;;;;;1.90;1.80;;;;;;;16.07;61.48;101712.00;5049734;27;102577;-49
2022/05/19 00:50:46;;;;;;;3.38;1.92;;;;;;;16.08;61.12;101712.81;5050240;27;102067;-49
2022/05/19 00:53:23;;;;;;;2.33;2.13;;;;;;;16.08;60.79;101702.69;5050966;27;102002;-49
2022/05/19 00:55:51;;;;;;;2.30;2.10;;;;;;;16.08;60.54;101710.94;5048462;27;103867;-49
2022/05/19 00:58:22;;;;;;;3.83;2.35;;;;;;;16.09;60.60;101709.81;5044210;27;102687;-49
2022/05/19 01:00:48;;;;;;;2.88;2.00;;;;;;;16.08;60.90;101713.69;5051064;27;102720;-50
2022/05/19 01:03:17;;;;;;;2.20;2.00;;;;;;;16.09;60.95;101715.31;5052775;27;102191;-49
2022/05/19 01:05:48;;;;;;;2.97;2.00;;;;;;;16.08;60.59;101710.94;5049721;27;104000;-50
2022/05/19 01:08:21;;;;;;;2.10;1.90;;;;;;;16.07;60.92;101717.50;5050748;27;102845;-50
2022/05/19 01:10:48;;;;;;;2.65;2.13;;;;;;;16.08;60.71;101707.34;5050980;27;102412;-50
2022/05/19 01:13:15;;;;;;;2.90;1.85;;;;;;;16.07;60.81;101709.25;5052894;27;102188;-49
2022/05/19 01:15:45;;;;;;;2.85;2.08;;;;;;;16.06;60.68;101710.38;5051079;27;103978;-50
2022/05/19 01:18:12;;;;;;;;;;;;;;;16.08;61.01;101707.34;5051896;27;102347;-49
2022/05/19 01:20:39;;;;;;;3.83;2.10;;;;;;;16.07;61.27;101709.25;5050594;27;102309;-50
2022/05/19 01:23:24;;;;;;;2.03;1.92;;;;;;;16.07;60.78;101712.00;5048969;27;102266;-50
2022/05/19 01:25:58;;;;;;;3.17;1.90;;;;;;;16.03;61.00;101708.19;5050560;27;103747;-50
2022/05/19 01:28:28;;;;;;;4.00;2.38;;;;;;;16.05;60.95;101713.41;5051755;27;102289;-50
2022/05/19 01:30:56;;;;;;;3.22;2.03;;;;;;;16.05;61.31;101713.41;5050392;27;101929;-50
2022/05/19 01:33:22;;;;;;;1.95;1.70;;;;;;;16.03;61.08;101721.94;5052311;27;102308;-50
2022/05/19 01:35:49;;;;;;;2.20;2.00;;;;;;;16.03;60.84;101721.94;5050280;27;103917;-49
2022/05/19 01:38:18;;;;;;;3.03;2.28;;;;;;;16.05;60.70;101729.91;5050797;27;102310;-50
2022/05/19 01:40:49;;;;;;;;;;;;;;;16.03;61.00;101721.94;5051578;27;102270;-50
2022/05/19 01:43:25;;;;;;;2.17;1.98;;;;;;;16.01;61.25;101724.16;5031954;28;102377;-50
2022/05/19 01:46:06;;;;;;;2.47;2.25;;;;;;;16.01;61.59;101729.66;5046027;27;103983;-49
2022/05/19 01:48:43;;;;;;;2.00;1.90;;;;;;;16.01;61.01;101739.78;5036340;27;101878;-49
2022/05/19 01:51:17;;;;;;;5.20;2.30;;;;;;;16.02;60.89;101736.78;5050844;27;102428;-49
2022/05/19 01:53:52;;;;;;;2.00;1.80;;;;;;;16.02;61.42;101731.28;5052044;27;102035;-50
2022/05/19 01:56:24;;;;;;;3.88;2.38;;;;;;;16.03;60.89;101738.41;5050520;27;103907;-50
2022/05/19 01:59:02;;;;;;;2.13;1.92;;;;;;;16.04;61.49;101733.72;5051391;27;102215;-50
2022/05/19 02:01:30;;;;;;;2.05;1.88;;;;;;;16.04;61.59;101731.78;5048517;27;102111;-50
2022/05/19 02:04:01;;;;;;;2.38;2.05;;;;;;;16.02;61.88;101731.28;5052091;27;102193;-50
2022/05/19 02:06:34;;;;;;;2.45;2.25;;;;;;;16.02;61.60;101742.25;5049948;27;103930;-50
2022/05/19 02:09:04;;;;;;;2.30;2.10;;;;;;;16.01;61.58;101732.38;5049602;27;102038;-49
2022/05/19 02:11:37;;;;;;;2.42;2.22;;;;;;;16.03;61.30;101735.66;5051041;27;102518;-50
2022/05/19 02:14:08;;;;;;;2.55;2.35;;;;;;;16.03;61.88;101738.41;5052144;27;102291;-49
2022/05/19 02:16:37;;;;;;;2.75;2.20;;;;;;;16.02;61.72;101736.78;5049668;27;104026;-50
2022/05/19 02:19:07;;;;;;;2.10;1.90;;;;;;;16.02;61.30;101742.25;5049864;27;102230;-50
2022/05/19 02:21:34;;;;;;;2.33;2.13;;;;;;;16.01;61.64;101748.88;5048427;27;101951;-50
2022/05/19 02:24:01;;;;;;;2.33;2.13;;;;;;;16.02;61.26;101747.75;5051855;27;102174;-49
2022/05/19 02:26:32;;;;;;;2.17;2.08;;;;;;;16.02;61.82;101747.75;5047957;27;104011;-49
2022/05/19 02:29:05;;;;;;;2.45;2.25;;;;;;;16.01;61.31;101750.75;5050877;27;101941;-49
2022/05/19 02:31:32;;;;;;;2.67;2.47;;;;;;;16.01;61.55;101751.59;5050255;27;102095;-50
2022/05/19 02:34:00;;;;;;;2.85;2.65;;;;;;;16.00;61.41;101752.69;5051936;27;102277;-49
2022/05/19 02:36:27;;;;;;;;;;;;;;;16.00;61.67;101758.19;5050406;27;103949;-49
2022/05/19 02:38:54;;;;;;;2.97;2.00;;;;;;;16.00;61.91;101760.94;5052128;27;101820;-49
2022/05/19 02:41:20;;;;;;;3.50;2.22;;;;;;;15.99;61.48;101759.28;5050847;27;102318;-49
2022/05/19 02:43:47;;;;;;;2.28;2.08;;;;;;;16.00;61.74;101766.41;5054865;27;102171;-49
2022/05/19 02:46:13;;;;;;;2.60;2.40;;;;;;;16.00;61.62;101760.94;5052822;27;103880;-49
2022/05/19 02:48:40;;;;;;;2.97;2.67;;;;;;;16.00;61.83;101766.41;5053759;27;101857;-49
2022/05/19 02:51:08;;;;;;;2.00;1.90;;;;;;;16.00;61.91;101771.91;5052416;27;102061;-49
2022/05/19 02:53:35;;;;;;;2.00;1.90;;;;;;;16.00;61.41;101774.66;5054011;27;102153;-49
2022/05/19 02:56:02;;;;;;;2.38;2.17;;;;;;;16.00;61.30;101771.09;5052165;27;103874;-49
2022/05/19 02:58:29;;;;;;;2.17;2.03;;;;;;;16.00;61.48;101777.41;5053400;27;102063;-50
2022/05/19 03:00:55;;;;;;;2.30;2.10;;;;;;;16.00;61.29;101771.91;5052515;27;102425;-49
2022/05/19 03:03:25;;;;;;;3.78;2.30;;;;;;;16.01;61.46;101776.31;5054650;27;102008;-49
2022/05/19 03:05:51;;;;;;;2.40;2.20;;;;;;;16.01;61.54;101779.06;5052222;27;103787;-49
2022/05/19 03:08:19;;;;;;;3.00;2.45;;;;;;;16.02;61.74;101780.69;5053904;27;102220;-49
2022/05/19 03:10:47;;;;;;;2.47;2.28;;;;;;;16.01;61.20;101784.56;5048461;27;102671;-49
2022/05/19 03:13:17;;;;;;;2.60;2.40;;;;;;;16.02;61.04;101786.19;5054247;27;102790;-49
2022/05/19 03:15:44;;;;;;;2.45;2.25;;;;;;;16.02;61.31;101794.44;5053454;27;104090;-49
2022/05/19 03:18:11;;;;;;;2.58;2.38;;;;;;;16.02;60.97;101786.19;5053571;27;102388;-49
2022/05/19 03:20:38;;;;;;;2.80;2.10;;;;;;;16.02;61.35;101783.44;5050079;27;102206;-50
2022/05/19 03:23:06;;;;;;;2.10;1.90;;;;;;;16.02;60.98;101791.69;5053939;27;102051;-49
2022/05/19 03:25:35;;;;;;;2.53;2.13;;;;;;;16.03;60.83;101793.31;5052710;27;103913;-49
2022/05/19 03:28:03;;;;;;;2.60;2.40;;;;;;;16.01;60.63;101790.03;5052319;27;102532;-49
2022/05/19 03:30:30;;;;;;;2.50;2.30;;;;;;;16.02;60.58;101797.16;5052729;27;102210;-49
2022/05/19 03:32:57;;;;;;;2.60;2.40;;;;;;;16.02;60.65;101797.16;5054288;27;102299;-49
2022/05/19 03:35:23;;;;;;;2.60;2.40;;;;;;;16.02;60.84;101799.91;5052469;27;103922;-49
2022/05/19 03:37:50;;;;;;;2.70;2.35;;;;;;;16.01;60.85;101798.28;5032603;27;101884;-49
2022/05/19 03:40:20;;;;;;;2.50;2.13;;;;;;;16.01;60.25;101795.53;5039051;27;101952;-50
2022/05/19 03:42:50;;;;;;;2.20;2.10;;;;;;;16.00;60.42;101788.38;5053312;27;102248;-49
2022/05/19 03:45:18;;;;;;;3.05;2.47;;;;;;;16.01;60.91;101805.69;5052549;27;104139;-50
2022/05/19 03:47:44;;;;;;;2.85;2.20;;;;;;;16.00;60.74;101804.03;5052639;27;102312;-49
2022/05/19 03:50:11;;;;;;;2.70;2.40;;;;;;;16.02;60.44;101802.66;5051892;27;102342;-50
2022/05/19 03:52:39;;;;;;;2.70;2.10;;;;;;;16.01;60.67;101795.53;5053657;27;102571;-50
2022/05/19 03:55:07;;;;;;;;;;;;;;;16.01;60.42;101812.00;5052737;27;103908;-49
2022/05/19 03:57:34;;;;;;;2.88;2.17;;;;;;;16.01;60.06;101803.78;5051127;27;101969;-49
2022/05/19 04:00:05;;;;;;;2.72;2.20;;;;;;;16.01;60.42;101800.19;5051971;27;102207;-49
2022/05/19 04:02:32;;;;;;;2.25;2.05;;;;;;;16.00;60.25;101804.84;5053476;27;102130;-49
2022/05/19 04:04:58;;;;;;;2.50;2.30;;;;;;;16.02;60.23;101810.91;5052102;27;104054;-49
2022/05/19 04:07:25;;;;;;;2.50;2.22;;;;;;;16.03;59.93;101807.03;5052327;27;101880;-49
2022/05/19 04:09:52;;;;;;;2.00;1.90;;;;;;;16.03;60.25;101807.03;5052924;27;102564;-49
2022/05/19 04:12:19;;;;;;;3.10;2.33;;;;;;;16.03;60.09;101806.22;5053450;27;102463;-50
2022/05/19 04:14:46;;;;;;;2.33;2.13;;;;;;;16.02;60.08;101808.16;5050615;27;103720;-50
2022/05/19 04:17:16;;;;;;;3.75;2.10;;;;;;;16.03;60.31;101815.28;5052801;27;102591;-50
2022/05/19 04:19:42;;;;;;;;;;;;;;;16.03;60.31;101809.78;5053071;27;102168;-49
2022/05/19 04:22:08;;;;;;;2.40;2.20;;;;;;;16.03;59.51;101820.78;5052664;27;101976;-49
2022/05/19 04:24:35;;;;;;;2.45;2.25;;;;;;;16.03;60.02;101820.78;5051796;27;103841;-50
2022/05/19 04:27:03;;;;;;;2.40;2.20;;;;;;;16.00;59.97;101810.34;5052543;27;102510;-50
2022/05/19 04:29:30;;;;;;;2.53;2.33;;;;;;;16.01;59.93;101824.91;5052183;27;101862;-49
2022/05/19 04:31:57;;;;;;;2.38;2.17;;;;;;;16.02;60.12;101827.38;5053454;27;102452;-49
2022/05/19 04:34:24;;;;;;;3.10;2.80;;;;;;;16.03;59.91;101834.50;5050540;27;104078;-49
2022/05/19 04:36:51;;;;;;;3.20;2.20;;;;;;;16.04;60.30;101827.91;5052289;27;102053;-49
2022/05/19 04:39:18;;;;;;;2.58;2.22;;;;;;;16.04;60.28;101830.66;5051610;27;102217;-50
2022/05/19 04:41:45;;;;;;;2.90;2.55;;;;;;;16.05;60.16;101835.06;5053076;27;102160;-50
2022/05/19 04:44:20;;;;;;;2.70;2.50;;;;;;;16.08;60.21;101839.13;5051719;27;104252;-49
2022/05/19 04:46:47;;;;;;;4.78;2.33;;;;;;;16.07;60.26;101843.81;5051802;27;101932;-50
2022/05/19 04:49:13;;;;;;;2.60;2.40;;;;;;;16.07;60.16;101834.75;5049964;27;102465;-50
2022/05/19 04:51:41;;;;;;;2.40;2.20;;;;;;;16.07;59.58;101838.31;5052062;27;102193;-49
2022/05/19 04:54:08;;;;;;;2.60;2.40;;;;;;;16.10;59.77;101842.44;5049272;27;103856;-49
2022/05/19 04:56:34;;;;;;;2.67;2.20;;;;;;;16.09;60.12;101838.88;5051564;27;102241;-49
2022/05/19 04:59:03;;;;;;;2.35;2.15;;;;;;;16.10;59.94;101840.50;5052085;27;102366;-49
2022/05/19 05:01:29;;;;;;;2.50;2.30;;;;;;;16.14;60.04;101839.94;5049929;27;103083;-49
2022/05/19 05:03:55;;;;;;;2.70;2.47;;;;;;;16.14;60.28;101839.94;5050857;27;104028;-51
2022/05/19 05:06:25;;;;;;;2.40;2.20;;;;;;;16.14;60.51;101845.44;5052402;27;102349;-49
2022/05/19 05:08:53;;;;;;;2.38;2.17;;;;;;;16.14;60.10;101845.44;5050630;27;102023;-49
2022/05/19 05:11:20;;;;;;;2.45;2.22;;;;;;;16.15;60.20;101845.16;5052418;27;102173;-50
2022/05/19 05:13:47;;;;;;;2.67;2.47;;;;;;;16.16;60.29;101844.06;5050989;27;103889;-49
2022/05/19 05:16:14;;;;;;;2.63;2.30;;;;;;;16.17;60.20;101836.66;5051777;27;101834;-49
2022/05/19 05:18:40;;;;;;;2.03;1.92;;;;;;;16.17;60.37;101840.22;5051082;27;102139;-49
2022/05/19 05:21:07;;;;;;;2.20;2.00;;;;;;;16.19;59.93;101842.66;5051805;27;102160;-49
2022/05/19 05:23:34;;;;;;;2.20;2.10;;;;;;;16.22;60.68;101844.84;5050981;27;104162;-49
2022/05/19 05:26:03;;;;;;;2.28;2.08;;;;;;;16.24;60.61;101842.66;5051984;27;101939;-50
2022/05/19 05:28:30;;;;;;;2.30;2.10;;;;;;;16.24;60.33;101837.16;5051213;27;102338;-49
2022/05/19 05:30:56;;;;;;;2.50;2.20;;;;;;;16.25;60.37;101845.09;5050427;27;101960;-49
2022/05/19 05:33:23;;;;;;;2.00;1.90;;;;;;;16.26;60.48;101857.75;5050346;27;103955;-50
2022/05/19 05:35:51;;;;;;;2.35;2.25;;;;;;;16.29;60.76;101853.59;5051483;27;102624;-49
2022/05/19 05:38:18;;;;;;;3.80;2.17;;;;;;;16.30;60.78;101849.75;5049705;27;102149;-49
2022/05/19 05:40:45;;;;;;;2.92;2.33;;;;;;;16.31;60.72;101851.41;5052616;27;102406;-49
2022/05/19 05:43:18;;;;;;;2.30;2.10;;;;;;;16.32;60.77;101845.63;5049609;27;103216;-51
2022/05/19 05:45:46;;;;;;;4.03;2.30;;;;;;;16.34;60.97;101854.41;5041174;27;102218;-50
2022/05/19 05:48:14;;;;;;;2.30;2.10;;;;;;;16.36;60.91;101839.56;5050460;27;102274;-49
2022/05/19 05:50:41;;;;;;;2.47;2.30;;;;;;;16.38;61.20;101857.44;5051662;27;102151;-50
2022/05/19 05:53:08;;;;;;;3.42;2.35;;;;;;;16.37;61.01;101842.03;5048366;27;104159;-49
2022/05/19 05:55:36;;;;;;;3.33;2.10;;;;;;;16.37;60.34;101842.03;5050361;27;102494;-49
2022/05/19 05:58:04;;;;;;;2.30;2.10;;;;;;;16.38;60.72;101843.69;5050434;27;102230;-49
2022/05/19 06:00:32;;;;;;;3.15;2.33;;;;;;;16.40;61.15;101846.13;5040087;27;102571;-50
2022/05/19 06:02:59;;;;;;;2.83;2.10;;;;;;;16.40;60.69;101841.47;5030115;27;103932;-49
2022/05/19 06:05:26;;;;;;;3.40;2.50;;;;;;;16.42;61.38;101844.75;5045170;27;101984;-49
2022/05/19 06:07:54;;;;;;;3.20;2.00;;;;;;;16.43;60.78;101840.91;5050454;27;102302;-50
2022/05/19 06:10:22;;;;;;;3.92;2.15;;;;;;;16.43;61.24;101846.41;5052329;27;102352;-50
2022/05/19 06:12:49;;;;;;;2.35;2.15;;;;;;;16.44;61.41;101842.53;5040279;27;103883;-49
2022/05/19 06:15:18;;;;;;;2.45;2.25;;;;;;;16.46;61.09;101840.34;5047096;27;102596;-49
2022/05/19 06:17:45;;;;;;;2.90;1.90;;;;;;;16.46;61.33;101848.59;5054087;27;102146;-50
2022/05/19 06:20:15;;;;;;;2.60;2.40;;;;;;;16.47;61.14;101847.47;5054447;27;102641;-50
2022/05/19 06:22:44;;;;;;;2.85;2.30;;;;;;;16.48;61.28;101842.78;5047050;27;103871;-49
2022/05/19 06:25:14;;;;;;;2.10;2.00;;;;;;;16.49;60.99;101844.44;5053262;27;102035;-50
2022/05/19 06:27:43;;;;;;;2.45;2.30;;;;;;;16.48;61.40;101849.13;5036631;27;101797;-50
2022/05/19 06:30:12;;;;;;;2.30;2.15;;;;;;;16.50;61.04;101852.41;5046177;27;102384;-50
2022/05/19 06:32:42;;;;;;;2.38;2.17;;;;;;;16.49;61.14;101850.75;5038118;27;104131;-50
2022/05/19 06:35:12;;;;;;;2.42;2.22;;;;;;;16.50;61.15;101852.41;5053256;27;102318;-49
2022/05/19 06:37:42;;;;;;;2.65;2.45;;;;;;;16.50;61.33;101857.91;5053581;27;102195;-49
2022/05/19 06:40:10;;;;;;;2.20;2.05;;;;;;;16.52;61.34;101860.38;5054881;27;102727;-50
2022/05/19 06:42:37;;;;;;;2.40;2.03;;;;;;;16.52;60.77;101863.13;5053153;27;103912;-50
2022/05/19 06:45:05;;;;;;;2.13;1.95;;;;;;;16.51;60.84;101856.78;5054278;27;102260;-50
2022/05/19 06:47:33;;;;;;;2.25;2.10;;;;;;;16.53;60.85;101856.50;5049955;27;102440;-50
2022/05/19 06:49:59;;;;;;;2.30;2.10;;;;;;;16.51;61.09;101856.78;5054985;27;102012;-50
2022/05/19 06:52:29;;;;;;;2.45;2.17;;;;;;;16.54;61.24;101858.97;5051051;27;104017;-50
2022/05/19 06:54:58;;;;;;;2.08;1.98;;;;;;;16.56;61.29;101853.22;5042419;27;101933;-50
2022/05/19 06:57:26;;;;;;;2.13;2.03;;;;;;;16.55;60.96;101860.63;5043190;27;102133;-50
2022/05/19 06:59:53;;;;;;;2.50;2.30;;;;;;;16.57;61.18;101858.41;5049272;27;102485;-50
2022/05/19 07:02:23;;;;;;;2.55;2.35;;;;;;;16.57;61.60;101852.91;5033197;27;104091;-50
2022/05/19 07:04:51;;;;;;;2.35;2.15;;;;;;;16.57;61.47;101866.66;5033712;27;101946;-49
2022/05/19 07:07:18;;;;;;;2.35;2.15;;;;;;;16.59;61.82;101866.38;5043186;27;102054;-50
2022/05/19 07:09:59;;;;;;;2.17;2.08;;;;;;;16.60;61.20;101861.69;5035695;27;101891;-50
2022/05/19 07:12:26;;;;;;;2.60;2.30;;;;;;;16.60;61.81;101857.03;5050068;27;104031;-50
2022/05/19 07:14:56;;;;;;;2.60;2.40;;;;;;;16.60;61.28;101862.53;5051477;27;102082;-50
2022/05/19 07:17:22;;;;;;;1.92;1.83;;;;;;;16.61;61.32;101866.09;5052513;27;102724;-50
2022/05/19 07:22:34;;;;;;;4.43;2.30;;;;;;;16.62;61.61;101871.28;5050425;27;103932;-50
2022/05/19 07:25:08;;;;;;;2.45;2.25;;;;;;;16.61;61.09;101857.84;5052988;27;102202;-50
2022/05/19 07:27:35;;;;;;;3.35;2.33;;;;;;;16.63;61.70;101866.63;5053255;27;102417;-50
2022/05/19 07:30:05;;;;;;;2.22;2.03;;;;;;;16.63;61.86;101872.13;5054489;27;102375;-50
2022/05/19 07:32:32;;;;;;;3.80;2.50;;;;;;;16.63;61.80;101861.13;5039719;27;103788;-50
2022/05/19 07:34:59;;;;;;;3.03;2.45;;;;;;;16.64;61.98;101869.09;5048422;27;102892;-50
2022/05/19 07:37:26;;;;;;;2.20;2.10;;;;;;;16.63;61.61;101872.13;5052050;27;102006;-49
2022/05/19 07:39:53;;;;;;;4.25;2.40;;;;;;;16.63;61.90;101872.13;5054413;27;102567;-50
2022/05/19 07:42:21;;;;;;;2.28;2.08;;;;;;;16.64;61.09;101879.25;5052601;27;104153;-50
2022/05/19 07:44:49;;;;;;;2.15;2.05;;;;;;;16.64;61.08;101871.03;5053662;27;101813;-50
2022/05/19 07:47:16;;;;;;;2.88;2.25;;;;;;;16.63;61.62;101861.97;5050421;27;102315;-50
2022/05/19 07:49:42;;;;;;;3.25;2.17;;;;;;;16.64;60.94;101868.28;5049916;27;102645;-49
2022/05/19 07:52:09;;;;;;;2.45;2.25;;;;;;;16.64;61.76;101873.78;5052431;27;103916;-49
2022/05/19 07:54:36;;;;;;;2.70;2.50;;;;;;;16.64;60.94;101871.84;5052877;27;102588;-49
2022/05/19 07:57:05;;;;;;;2.30;2.10;;;;;;;16.63;60.67;101869.38;5053013;27;101877;-49
2022/05/19 07:59:33;;;;;;;2.40;2.20;;;;;;;16.64;61.50;101880.09;5052230;27;104341;-49
2022/05/19 08:02:01;;;;;;;2.43;2.23;;;;;;;16.64;61.57;101874.59;5050980;27;103897;-49
2022/05/19 08:04:29;;;;;;;2.15;2.05;;;;;;;16.65;61.11;101869.91;5048588;27;101905;-49
2022/05/19 08:06:56;;;;;;;2.40;2.20;;;;;;;16.63;61.23;101872.94;5052120;27;102204;-49
2022/05/19 08:12:17;;;;;;;2.20;2.00;;;;;;;16.62;61.46;101865.78;5031560;28;104148;-50
2022/05/19 08:17:30;;;;;;;2.67;2.40;;;;;;;16.63;61.58;101874.88;5037855;27;102200;-50
2022/05/19 08:19:57;;;;;;;2.17;2.08;;;;;;;16.62;61.07;101865.78;5052667;27;102375;-49
2022/05/19 08:22:24;;;;;;;2.40;2.20;;;;;;;16.63;61.57;101877.63;5051410;27;103774;-49
2022/05/19 08:24:52;;;;;;;2.38;2.20;;;;;;;16.63;61.41;101866.63;5053039;27;102547;-49
2022/05/19 08:27:19;;;;;;;2.22;2.00;;;;;;;16.63;60.84;101877.63;5051527;27;102420;-49
2022/05/19 08:29:47;;;;;;;2.42;2.22;;;;;;;16.64;60.83;101873.78;5047919;27;102028;-49
2022/05/19 08:32:14;;;;;;;2.30;2.10;;;;;;;16.61;60.96;101863.34;5035888;27;103893;-49
2022/05/19 08:34:40;;;;;;;2.20;2.10;;;;;;;16.61;60.96;101871.59;5051845;27;102384;-49
2022/05/19 08:37:07;;;;;;;2.22;1.92;;;;;;;16.58;60.86;101873.78;5051692;27;101969;-49
2022/05/19 08:39:34;;;;;;;2.00;1.90;;;;;;;16.57;61.01;101869.41;5051388;27;102805;-49
2022/05/19 08:42:06;;;;;;;3.00;2.20;;;;;;;16.57;60.97;101869.41;5050361;27;104100;-49
2022/05/19 08:44:38;;;;;;;2.40;2.20;;;;;;;16.57;60.94;101863.91;5052124;27;102090;-50
2022/05/19 08:47:13;;;;;;;2.20;2.00;;;;;;;16.57;60.99;101863.91;5045727;27;102369;-50
2022/05/19 08:49:44;;;;;;;2.42;2.22;;;;;;;16.58;61.15;101865.53;5049264;27;102547;-49
2022/05/19 08:52:14;;;;;;;3.28;2.42;;;;;;;16.58;60.46;101870.22;5039781;27;103596;-49
2022/05/19 08:54:46;;;;;;;2.10;2.00;;;;;;;16.58;61.25;101871.03;5051604;27;102718;-49
2022/05/19 08:57:20;;;;;;;2.95;1.73;;;;;;;16.58;60.65;101871.03;5051578;27;101908;-49
2022/05/19 08:59:58;;;;;;;2.33;2.13;;;;;;;16.58;60.79;101865.53;5039955;27;104293;-50
2022/05/19 09:02:32;;;;;;;2.42;2.20;;;;;;;16.58;61.33;101876.53;5049500;27;103915;-49
2022/05/19 09:05:21;;;;;;;2.40;2.20;;;;;;;16.58;60.79;101870.22;5052239;27;102485;-49
2022/05/19 09:07:56;;;;;;;2.13;2.00;;;;;;;16.59;61.20;101869.13;5051096;27;102539;-49
2022/05/19 09:10:43;;;;;;;2.20;2.00;;;;;;;16.58;60.54;101871.03;5052563;27;102602;-49
2022/05/19 09:13:23;;;;;;;1.92;1.83;;;;;;;16.58;61.18;101864.72;5051306;27;103893;-49
2022/05/19 09:15:52;;;;;;;2.40;2.20;;;;;;;16.55;60.77;101863.38;5049732;27;102334;-50
2022/05/19 09:18:34;;;;;;;2.40;2.10;;;;;;;16.55;61.25;101859.78;5046063;27;102447;-49
2022/05/19 09:21:03;;;;;;;1.98;1.88;;;;;;;16.56;61.70;101859.53;5049761;27;101988;-49
2022/05/19 09:23:29;;;;;;;2.17;1.98;;;;;;;16.58;60.89;101865.53;5047051;27;103850;-49
2022/05/19 09:26:12;;;;;;;2.43;2.23;;;;;;;16.58;60.97;101859.22;5052061;27;102057;-49
2022/05/19 09:28:43;;;;;;;2.20;2.00;;;;;;;16.58;61.83;101857.28;5051000;27;101915;-49
2022/05/19 09:31:13;;;;;;;2.22;2.03;;;;;;;16.57;61.33;101861.16;5052863;27;102029;-49
2022/05/19 09:33:47;;;;;;;2.28;2.08;;;;;;;16.57;61.55;101858.41;5047105;27;103953;-50
2022/05/19 09:36:15;;;;;;;2.50;2.30;;;;;;;16.57;61.41;101850.16;5050732;27;102117;-49
2022/05/19 09:38:47;;;;;;;1.80;1.70;;;;;;;16.58;61.19;101854.53;5050965;27;102037;-49
2022/05/19 09:41:24;;;;;;;2.78;2.20;;;;;;;16.57;60.86;101852.91;5050759;27;102299;-49
2022/05/19 09:43:53;;;;;;;2.00;1.90;;;;;;;16.56;61.15;101851.28;5043600;27;103897;-49
2022/05/19 09:46:20;;;;;;;2.17;1.98;;;;;;;16.56;61.57;101855.97;5050666;27;101987;-49
2022/05/19 09:48:57;;;;;;;1.95;1.85;;;;;;;16.56;61.37;101840.28;5046035;27;102522;-49
2022/05/19 09:51:31;;;;;;;1.88;1.77;;;;;;;16.55;60.96;101838.66;5052816;27;102239;-49
2022/05/19 09:54:03;;;;;;;2.88;2.25;;;;;;;16.55;61.45;101841.41;5051272;27;104006;-49
2022/05/19 09:56:39;;;;;;;2.25;1.83;;;;;;;16.56;61.44;101833.97;5048052;27;102040;-49
2022/05/19 09:59:08;;;;;;;2.08;1.98;;;;;;;16.55;61.20;101835.91;5049468;27;102071;-49
2022/05/19 10:01:37;;;;;;;;;;;;;;;16.57;61.87;101836.41;5048906;27;102648;-49
2022/05/19 10:04:07;;;;;;;;;;;;;;;16.57;61.50;101830.94;5049538;27;104058;-49
2022/05/19 10:06:36;;;;;;;2.08;1.88;;;;;;;16.58;61.69;101834.50;5043492;27;102097;-49
2022/05/19 10:09:07;;;;;;;;;;;;;;;16.57;61.53;101830.09;5047055;27;102484;-49
2022/05/19 10:11:34;;;;;;;2.15;2.03;;;;;;;16.55;61.77;101827.66;5052261;27;102649;-49
2022/05/19 10:14:06;;;;;;;2.05;1.95;;;;;;;16.55;61.54;101824.06;5045055;27;104014;-49
2022/05/19 10:16:50;;;;;;;2.35;1.88;;;;;;;16.54;61.74;101820.50;5054448;27;102501;-49
2022/05/19 10:19:31;;;;;;;2.00;1.90;;;;;;;16.55;61.52;101821.31;5045812;27;102565;-50
2022/05/19 10:22:13;;;;;;;2.03;1.92;;;;;;;16.55;61.61;101826.81;5049144;27;102657;-49
2022/05/19 10:25:04;;;;;;;1.80;1.70;;;;;;;16.53;61.85;101821.59;5053101;27;103882;-49
2022/05/19 10:33:31;;;;;;;1.70;1.60;;;;;;;16.53;61.61;101799.63;5055090;27;101920;-50
2022/05/19 10:36:11;;;;;;;2.40;1.70;;;;;;;16.53;61.76;101807.88;5053080;27;103671;-49
2022/05/19 10:38:51;;;;;;;1.90;1.80;;;;;;;16.54;62.12;101806.75;5054247;27;102270;-49
2022/05/19 10:41:36;;;;;;;1.80;1.70;;;;;;;16.55;61.83;101816.66;5054456;27;102382;-49
2022/05/19 10:44:19;;;;;;;2.08;1.85;;;;;;;16.56;61.56;101803.75;5054614;27;102009;-49
2022/05/19 10:46:53;;;;;;;2.22;2.10;;;;;;;16.55;61.30;101808.41;5049553;27;103831;-49
2022/05/19 10:49:46;;;;;;;2.10;1.90;;;;;;;16.55;62.12;101804.81;5046057;27;102248;-49
2022/05/19 10:52:26;;;;;;;3.50;1.92;;;;;;;16.54;62.24;101801.25;5050939;27;103610;-49
2022/05/19 10:55:05;;;;;;;2.00;1.90;;;;;;;16.55;62.37;101794.69;5054798;27;102494;-49
2022/05/19 10:57:46;;;;;;;2.00;1.80;;;;;;;16.54;61.86;101793.00;5049810;27;104101;-50
2022/05/19 11:00:18;;;;;;;2.72;2.00;;;;;;;16.54;61.86;101804.00;5046089;27;102150;-50
2022/05/19 11:03:06;;;;;;;1.80;1.70;;;;;;;16.52;62.16;101792.50;5052272;27;102652;-49
2022/05/19 11:05:44;;;;;;;2.17;2.00;;;;;;;16.51;62.19;101793.59;5054506;27;102318;-49
2022/05/19 11:08:25;;;;;;;2.13;1.92;;;;;;;16.51;61.84;101785.34;5053064;27;103889;-49
2022/05/19 11:10:58;;;;;;;2.05;1.90;;;;;;;16.52;61.94;101789.75;5051708;27;102698;-49
2022/05/19 11:13:38;;;;;;;1.77;1.65;;;;;;;16.52;61.96;101784.25;5052704;27;101781;-50
2022/05/19 11:16:17;;;;;;;1.92;1.83;;;;;;;16.50;61.43;101780.97;5054618;27;101866;-49
2022/05/19 11:18:54;;;;;;;2.00;1.90;;;;;;;16.49;61.84;101776.56;5047521;27;103999;-49
2022/05/19 11:21:28;;;;;;;1.90;1.80;;;;;;;16.49;61.53;101782.06;5042693;27;102078;-49
2022/05/19 11:24:03;;;;;;;2.80;1.90;;;;;;;16.50;61.56;101769.16;5044580;27;102338;-49
2022/05/19 11:26:35;;;;;;;1.75;1.65;;;;;;;16.50;61.03;101764.47;5048012;27;102168;-49
2022/05/19 11:29:26;;;;;;;2.03;1.70;;;;;;;16.49;61.40;101768.34;5034704;27;103972;-49
2022/05/19 11:31:59;;;;;;;2.35;1.88;;;;;;;16.49;61.60;101776.56;5051778;27;102430;-49
2022/05/19 11:34:31;;;;;;;2.30;1.90;;;;;;;16.48;61.53;101777.69;5052657;27;102464;-50
2022/05/19 11:37:05;;;;;;;1.80;1.70;;;;;;;16.49;61.98;101768.34;5052521;27;102079;-49
2022/05/19 11:39:41;;;;;;;2.00;1.90;;;;;;;16.48;61.60;101776.84;5051255;27;103868;-50
2022/05/19 11:42:21;;;;;;;1.98;1.88;;;;;;;16.48;61.34;101780.44;5049073;27;102623;-49
2022/05/19 11:44:48;;;;;;;1.95;1.80;;;;;;;16.49;61.82;101782.06;5052304;27;103084;-49
2022/05/19 11:55:12;;;;;;;1.83;1.70;;;;;;;16.49;61.78;101770.25;5054069;27;102712;-50